Chesaning, Michigan
Current Conditions -  °F | °C
As of 7:54 AM on Monday 20 Oct 2014 (Local Time) from KRNP Reporting Station
Overcast Overcast  
Wind Chill: 44°   Ceiling: 7000
Heat Index: 47°   Visibility: 10mi
Dew Point: 45°   Wind: 7mph
Humidity: 92%   Direction: 200°SSW
Pressure: 29.81"   Gusts: NA
Location:  43.18°N, 84.11°W
Report Text: KRNP 201154Z AUTO 20006KT 10SM OVC070 08/07 A2981 RMK AO2 T00830071
Loading
Personal Weather Stations






























Interactive Weather Map
Tropical Storm Tracking
New forecast layout! Learn more

10-Day Weather Forecast

Advertisements
Track Severe Weather on mobile